createdAt,value
2023-05-22T00:01:06.641Z,101017.41
2023-05-22T00:03:33.638Z,101018.38
2023-05-22T00:06:00.307Z,101022.25
2023-05-22T00:08:29.858Z,101018.84
2023-05-22T00:10:56.649Z,101020.47
2023-05-22T00:13:23.174Z,101019.81
2023-05-22T00:15:49.847Z,101022.88
2023-05-22T00:18:16.465Z,101032.09
2023-05-22T00:20:43.008Z,101021.72
2023-05-22T00:23:10.442Z,101013.78
2023-05-22T00:25:37.620Z,101017.34
2023-05-22T00:28:04.710Z,101015.72
2023-05-22T00:30:31.792Z,101014.22
2023-05-22T00:32:58.409Z,101014.06
2023-05-22T00:35:25.292Z,101009.19
2023-05-22T00:37:51.825Z,101002.06
2023-05-22T00:40:18.657Z,101007.72
2023-05-22T00:42:45.317Z,101002.22
2023-05-22T00:45:13.171Z,100994.13
2023-05-22T00:47:40.069Z,100993.97
2023-05-22T00:50:07.798Z,100997.88
2023-05-22T00:52:41.125Z,100989.09
2023-05-22T00:55:08.844Z,100995.06
2023-05-22T00:57:37.071Z,100986.00
2023-05-22T01:00:06.130Z,100991.78
2023-05-22T01:02:33.017Z,100987.41
2023-05-22T01:04:59.694Z,100991.31
2023-05-22T01:07:26.293Z,100987.94
2023-05-22T01:09:52.773Z,100981.28
2023-05-22T01:12:30.933Z,100988.03
2023-05-22T01:15:29.299Z,100984.16
2023-05-22T01:18:11.051Z,100986.59
2023-05-22T01:20:48.884Z,100981.09
2023-05-22T01:23:46.473Z,100981.41
2023-05-22T01:26:28.743Z,100985.28
2023-05-22T01:29:11.953Z,100989.00
2023-05-22T01:31:40.886Z,100987.53
2023-05-22T01:34:10.889Z,100979.44
2023-05-22T01:36:41.471Z,100993.31
2023-05-22T01:39:09.009Z,100975.72
2023-05-22T01:41:36.227Z,100975.38
2023-05-22T01:44:03.676Z,100978.47
2023-05-22T01:46:31.054Z,100962.75
2023-05-22T01:48:58.458Z,100972.13
2023-05-22T01:51:53.806Z,100977.44
2023-05-22T01:54:37.096Z,100978.38
2023-05-22T01:57:18.794Z,100966.28
2023-05-22T02:00:04.812Z,100970.28
2023-05-22T02:02:58.371Z,100965.63
2023-05-22T02:05:29.326Z,100971.22
2023-05-22T02:08:00.870Z,100961.88
2023-05-22T02:10:29.070Z,100963.84
2023-05-22T02:12:56.018Z,100964.25
2023-05-22T02:15:23.251Z,100975.06
2023-05-22T02:17:50.031Z,100967.94
2023-05-22T02:20:16.701Z,100964.72
2023-05-22T02:22:47.467Z,100963.06
2023-05-22T02:25:15.188Z,100961.78
2023-05-22T02:27:42.961Z,100963.88
2023-05-22T02:30:10.889Z,100958.03
2023-05-22T02:32:39.868Z,100958.34
2023-05-22T02:35:07.763Z,100966.22
2023-05-22T02:37:34.537Z,100950.66
2023-05-22T02:40:01.048Z,100956.97
2023-05-22T02:42:29.914Z,100944.28
2023-05-22T02:44:56.597Z,100957.94
2023-05-22T02:47:23.104Z,100954.03
2023-05-22T02:49:50.806Z,100946.09
2023-05-22T02:52:17.498Z,100946.91
2023-05-22T02:54:44.395Z,100940.72
2023-05-22T02:57:10.893Z,100939.28
2023-05-22T02:59:37.421Z,100938.78
2023-05-22T03:02:04.081Z,100934.09
2023-05-22T03:04:30.594Z,100943.16
2023-05-22T03:06:57.120Z,100936.47
2023-05-22T03:09:23.672Z,100941.28
2023-05-22T03:11:50.630Z,100940.97
2023-05-22T03:14:17.604Z,100943.00
2023-05-22T03:16:44.803Z,100939.28
2023-05-22T03:19:12.940Z,100936.53
2023-05-22T03:21:39.692Z,100938.78
2023-05-22T03:24:07.504Z,100936.97
2023-05-22T03:26:34.300Z,100937.75
2023-05-22T03:29:03.406Z,100941.31
2023-05-22T03:31:31.513Z,100934.34
2023-05-22T03:34:18.223Z,100938.81
2023-05-22T03:36:47.318Z,100935.56
2023-05-22T03:39:16.148Z,100938.81
2023-05-22T03:41:51.846Z,100930.88
2023-05-22T03:44:18.878Z,100935.97
2023-05-22T03:46:46.151Z,100946.47
2023-05-22T03:49:12.612Z,100938.53
2023-05-22T03:51:39.367Z,100940.34
2023-05-22T03:54:05.869Z,100927.94
2023-05-22T03:56:32.327Z,100933.63
2023-05-22T03:58:58.836Z,100937.38
2023-05-22T04:01:25.402Z,100933.00
2023-05-22T04:03:51.872Z,100926.72
2023-05-22T04:06:21.639Z,100934.84
2023-05-22T04:08:48.860Z,100932.47
2023-05-22T04:11:18.683Z,100931.53
2023-05-22T04:13:45.530Z,100931.16
2023-05-22T04:16:12.073Z,100930.03
2023-05-22T04:18:38.545Z,100928.19
2023-05-22T04:21:08.117Z,100929.69
2023-05-22T04:23:34.672Z,100936.28
2023-05-22T04:26:04.236Z,100928.91
2023-05-22T04:28:30.660Z,100938.59
2023-05-22T04:31:00.053Z,100934.63
2023-05-22T04:33:30.291Z,100930.44
2023-05-22T04:35:57.213Z,100929.38
2023-05-22T04:38:26.391Z,100931.06
2023-05-22T04:40:52.956Z,100932.13
2023-05-22T04:43:19.441Z,100925.69
2023-05-22T04:45:46.445Z,100925.75
2023-05-22T04:48:13.654Z,100927.38
2023-05-22T04:50:40.218Z,100922.19
2023-05-22T04:53:07.009Z,100921.38
2023-05-22T04:55:36.946Z,100931.81
2023-05-22T04:58:03.664Z,100923.94
2023-05-22T05:00:30.098Z,100933.78
2023-05-22T05:02:57.585Z,100925.94
2023-05-22T05:05:24.797Z,100921.38
2023-05-22T05:07:51.836Z,100925.94
2023-05-22T05:10:18.970Z,100922.41
2023-05-22T05:12:45.773Z,100921.28
2023-05-22T05:15:12.618Z,100925.78
2023-05-22T05:17:39.476Z,100915.94
2023-05-22T05:20:07.874Z,100922.75
2023-05-22T05:22:34.649Z,100919.88
2023-05-22T05:25:03.690Z,100916.81
2023-05-22T05:27:30.460Z,100921.38
2023-05-22T05:29:57.075Z,100920.38
2023-05-22T05:32:28.971Z,100913.00
2023-05-22T05:35:21.779Z,100920.94
2023-05-22T05:37:51.687Z,100911.44
2023-05-22T05:40:18.327Z,100911.28
2023-05-22T05:42:51.562Z,100919.38
2023-05-22T05:45:22.731Z,100919.38
2023-05-22T05:47:51.962Z,100913.28
2023-05-22T05:50:18.686Z,100923.34
2023-05-22T05:52:45.595Z,100924.16
2023-05-22T05:55:15.834Z,100920.94
2023-05-22T05:57:42.440Z,100924.97
2023-05-22T06:00:14.418Z,100919.66
2023-05-22T06:02:41.787Z,100928.84
2023-05-22T06:05:20.022Z,100924.16
2023-05-22T06:07:50.461Z,100923.34
2023-05-22T06:10:18.278Z,100928.22
2023-05-22T06:13:05.240Z,100931.44
2023-05-22T06:15:31.922Z,100929.16
2023-05-22T06:17:58.862Z,100931.44
2023-05-22T06:20:25.618Z,100933.69
2023-05-22T06:22:52.067Z,100927.16
2023-05-22T06:25:19.049Z,100938.66
2023-05-22T06:27:47.360Z,100932.69
2023-05-22T06:30:25.270Z,100932.66
2023-05-22T06:32:55.700Z,100935.56
2023-05-22T06:35:22.505Z,100938.31
2023-05-22T06:37:49.396Z,100932.03
2023-05-22T06:40:16.440Z,100938.94
2023-05-22T06:42:48.735Z,100940.31
2023-05-22T06:45:40.542Z,100948.50
2023-05-22T06:48:19.082Z,100944.75
2023-05-22T06:50:58.121Z,100944.75
2023-05-22T06:53:25.961Z,100945.78
2023-05-22T06:55:52.727Z,100941.78
2023-05-22T06:58:28.645Z,100935.47
2023-05-22T07:00:55.807Z,100936.50
2023-05-22T07:03:30.566Z,100933.69
2023-05-22T07:06:18.143Z,100931.50
2023-05-22T07:08:44.971Z,100934.47
2023-05-22T07:11:11.432Z,100930.38
2023-05-22T07:13:37.902Z,100934.75
2023-05-22T07:16:04.679Z,100936.19
2023-05-22T07:18:31.396Z,100947.81
2023-05-22T07:20:58.754Z,100936.09
2023-05-22T07:23:26.353Z,100942.38
2023-05-22T07:25:53.070Z,100939.03
2023-05-22T07:28:22.454Z,100936.38
2023-05-22T07:31:00.367Z,100939.84
2023-05-22T07:33:27.254Z,100931.25
2023-05-22T07:35:54.936Z,100936.59
2023-05-22T07:38:22.449Z,100934.97
2023-05-22T07:40:56.766Z,100934.81
2023-05-22T07:43:25.109Z,100931.63
2023-05-22T07:45:54.153Z,100931.91
2023-05-22T07:48:25.030Z,100933.81
2023-05-22T07:50:51.670Z,100932.59
2023-05-22T07:53:18.115Z,100925.22
2023-05-22T07:55:48.996Z,100945.50
2023-05-22T07:58:15.594Z,100935.31
2023-05-22T08:00:43.833Z,100935.78
2023-05-22T08:03:10.948Z,100940.38
2023-05-22T08:05:37.724Z,100938.13
2023-05-22T08:08:04.734Z,100942.66
2023-05-22T08:10:46.450Z,100943.91
2023-05-22T08:13:15.586Z,100941.50
2023-05-22T08:15:42.305Z,100934.06
2023-05-22T08:18:08.855Z,100936.03
2023-05-22T08:20:35.857Z,100942.03
2023-05-22T08:23:02.311Z,100935.41
2023-05-22T08:25:28.782Z,100938.34
2023-05-22T08:27:55.291Z,100938.78
2023-05-22T08:30:21.783Z,100929.66
2023-05-22T08:32:48.343Z,100926.41
2023-05-22T08:35:14.882Z,100926.88
2023-05-22T08:37:41.520Z,100927.75
2023-05-22T08:40:11.716Z,100925.16
2023-05-22T08:42:38.607Z,100921.84
2023-05-22T08:45:07.002Z,100920.44
2023-05-22T08:47:36.769Z,100908.75
2023-05-22T08:50:03.737Z,100907.88
2023-05-22T08:52:35.028Z,100918.56
2023-05-22T08:55:04.951Z,100913.81
2023-05-22T08:57:32.818Z,100905.69
2023-05-22T08:59:59.370Z,100901.66
2023-05-22T09:02:26.951Z,100901.78
2023-05-22T09:04:53.527Z,100905.72
2023-05-22T09:07:22.013Z,100891.31
2023-05-22T09:09:49.374Z,100891.16
2023-05-22T09:12:16.322Z,100894.81
2023-05-22T09:14:43.742Z,100890.00
2023-05-22T09:17:11.901Z,100894.41
2023-05-22T09:19:39.044Z,100887.41
2023-05-22T09:22:06.377Z,100881.97
2023-05-22T09:24:43.136Z,100892.78
2023-05-22T09:27:11.063Z,100893.75
2023-05-22T09:29:55.053Z,100890.31
2023-05-22T09:32:21.856Z,100893.59
2023-05-22T09:34:48.705Z,100893.66
2023-05-22T09:37:16.744Z,100884.59
2023-05-22T09:39:44.994Z,100884.97
2023-05-22T09:42:14.926Z,100888.75
2023-05-22T09:44:44.068Z,100883.53
2023-05-22T09:47:11.234Z,100885.13
2023-05-22T09:49:45.049Z,100886.66
2023-05-22T09:52:15.146Z,100882.78
2023-05-22T09:54:55.138Z,100873.06
2023-05-22T09:57:24.222Z,100883.53
2023-05-22T09:59:54.471Z,100883.13
2023-05-22T10:02:25.708Z,100882.00
2023-05-22T10:04:53.400Z,100883.38
2023-05-22T10:07:27.264Z,100876.63
2023-05-22T10:10:04.321Z,100874.72
2023-05-22T10:12:33.761Z,100878.59
2023-05-22T10:15:02.700Z,100874.88
2023-05-22T10:17:29.636Z,100870.19
2023-05-22T10:19:57.574Z,100863.09
2023-05-22T10:22:26.659Z,100868.75
2023-05-22T10:24:54.853Z,100871.09
2023-05-22T10:27:21.755Z,100862.44
2023-05-22T10:30:15.251Z,100859.75
2023-05-22T10:33:03.140Z,100862.56
2023-05-22T10:35:40.930Z,100856.97
2023-05-22T10:38:34.554Z,100849.41
2023-05-22T10:41:03.771Z,100843.78
2023-05-22T10:43:33.546Z,100842.59
2023-05-22T10:46:04.557Z,100852.13
2023-05-22T10:48:40.527Z,100843.78
2023-05-22T10:51:08.724Z,100849.84
2023-05-22T10:53:36.241Z,100840.72
2023-05-22T10:56:11.355Z,100842.38
2023-05-22T10:58:38.838Z,100837.19
2023-05-22T11:01:15.610Z,100829.66
2023-05-22T11:03:54.602Z,100841.69
2023-05-22T11:06:32.999Z,100820.91
2023-05-22T11:08:59.762Z,100839.69
2023-05-22T11:11:27.211Z,100830.91
2023-05-22T11:14:03.262Z,100832.47
2023-05-22T11:16:33.642Z,100833.69
2023-05-22T11:19:21.150Z,100819.72
2023-05-22T11:21:49.750Z,100816.94
2023-05-22T11:24:17.882Z,100825.38
2023-05-22T11:26:45.090Z,100825.75
2023-05-22T11:29:11.686Z,100824.13
2023-05-22T11:31:38.936Z,100824.94
2023-05-22T11:34:05.540Z,100825.31
2023-05-22T11:36:32.287Z,100816.81
2023-05-22T11:39:00.104Z,100814.94
2023-05-22T11:41:34.181Z,100815.84
2023-05-22T11:44:01.518Z,100815.84
2023-05-22T11:46:30.132Z,100814.22
2023-05-22T11:48:56.979Z,100811.44
2023-05-22T11:51:23.570Z,100809.38
2023-05-22T11:53:50.475Z,100805.78
2023-05-22T11:56:23.873Z,100812.22
2023-05-22T11:58:51.726Z,100803.78
2023-05-22T12:01:18.204Z,100800.16
2023-05-22T12:03:45.325Z,100810.09
2023-05-22T12:06:12.317Z,100798.66
2023-05-22T12:08:40.591Z,100800.03
2023-05-22T12:11:07.370Z,100798.94
2023-05-22T12:13:33.957Z,100796.06
2023-05-22T12:16:00.942Z,100786.72
2023-05-22T12:18:35.334Z,100791.09
2023-05-22T12:21:01.951Z,100787.94
2023-05-22T12:23:28.715Z,100791.53
2023-05-22T12:26:02.874Z,100791.16
2023-05-22T12:28:33.346Z,100787.91
2023-05-22T12:31:00.435Z,100777.91
2023-05-22T12:33:31.532Z,100784.03
2023-05-22T12:35:58.893Z,100774.88
2023-05-22T12:38:27.242Z,100777.59
2023-05-22T12:40:55.673Z,100783.16
2023-05-22T12:43:26.353Z,100779.88
2023-05-22T12:45:53.058Z,100780.22
2023-05-22T12:48:19.882Z,100777.44
2023-05-22T12:50:46.833Z,100775.44
2023-05-22T12:53:13.551Z,100775.50
2023-05-22T12:55:40.528Z,100776.34
2023-05-22T12:58:07.273Z,100768.78
2023-05-22T13:00:34.904Z,100775.09
2023-05-22T13:03:01.962Z,100766.53
2023-05-22T13:05:28.614Z,100759.66
2023-05-22T13:07:55.122Z,100767.22
2023-05-22T13:10:21.768Z,100763.41
2023-05-22T13:12:51.061Z,100763.63
2023-05-22T13:15:18.549Z,100763.06
2023-05-22T13:17:46.199Z,100762.81
2023-05-22T13:20:13.477Z,100759.31
2023-05-22T13:22:41.199Z,100764.47
2023-05-22T13:25:08.043Z,100749.81
2023-05-22T13:27:34.472Z,100748.66
2023-05-22T13:30:00.942Z,100741.50
2023-05-22T13:32:27.421Z,100743.84
2023-05-22T13:34:53.920Z,100739.06
2023-05-22T13:37:20.890Z,100735.09
2023-05-22T13:39:47.386Z,100739.50
2023-05-22T13:42:13.935Z,100735.88
2023-05-22T13:44:40.531Z,100743.44
2023-05-22T13:47:07.059Z,100723.47
2023-05-22T13:49:33.775Z,100721.06
2023-05-22T13:52:00.367Z,100721.88
2023-05-22T13:54:27.965Z,100717.06
2023-05-22T13:56:54.606Z,100713.56
2023-05-22T13:59:21.151Z,100699.91
2023-05-22T14:01:47.666Z,100701.13
2023-05-22T14:04:14.123Z,100696.75
2023-05-22T14:06:40.610Z,100705.53
2023-05-22T14:09:09.287Z,100698.31
2023-05-22T14:11:35.837Z,100693.50
2023-05-22T14:14:02.338Z,100700.66
2023-05-22T14:16:28.772Z,100696.25
2023-05-22T14:18:55.429Z,100688.72
2023-05-22T14:21:22.092Z,100692.72
2023-05-22T14:23:48.501Z,100686.31
2023-05-22T14:26:15.214Z,100682.78
2023-05-22T14:28:42.149Z,100678.75
2023-05-22T14:31:08.676Z,100687.84
2023-05-22T14:33:35.799Z,100681.34
2023-05-22T14:36:02.401Z,100687.63
2023-05-22T14:38:34.849Z,100678.81
2023-05-22T14:41:02.093Z,100670.81
2023-05-22T14:43:28.630Z,100675.16
2023-05-22T14:45:56.359Z,100671.84
2023-05-22T14:48:26.279Z,100670.19
2023-05-22T14:50:53.801Z,100673.81
2023-05-22T14:53:20.951Z,100673.69
2023-05-22T14:55:47.612Z,100677.16
2023-05-22T14:58:14.386Z,100671.81
2023-05-22T15:00:42.664Z,100664.75
2023-05-22T15:03:09.167Z,100655.81
2023-05-22T15:05:36.014Z,100650.09
2023-05-22T15:08:02.698Z,100643.75
2023-05-22T15:10:29.283Z,100637.97
2023-05-22T15:12:55.821Z,100646.59
2023-05-22T15:15:22.483Z,100646.97
2023-05-22T15:17:49.005Z,100650.06
2023-05-22T15:20:15.540Z,100648.31
2023-05-22T15:22:42.030Z,100653.44
2023-05-22T15:25:16.830Z,100663.22
2023-05-22T15:27:43.640Z,100679.00
2023-05-22T15:30:11.336Z,100694.19
2023-05-22T15:32:38.513Z,100698.97
2023-05-22T15:35:06.592Z,100702.91
2023-05-22T15:37:36.542Z,100701.84
2023-05-22T15:40:04.309Z,100700.16
2023-05-22T15:42:31.008Z,100707.94
2023-05-22T15:44:59.345Z,100725.22
2023-05-22T15:47:25.907Z,100716.50
2023-05-22T15:49:52.714Z,100715.88
2023-05-22T15:52:19.433Z,100708.06
2023-05-22T15:54:46.302Z,100714.22
2023-05-22T15:57:12.731Z,100718.16
2023-05-22T15:59:39.194Z,100727.50
2023-05-22T16:02:05.636Z,100717.78
2023-05-22T16:04:32.790Z,100725.66
2023-05-22T16:06:59.240Z,100721.91
2023-05-22T16:09:25.659Z,100716.84
2023-05-22T16:11:52.218Z,100718.69
2023-05-22T16:14:18.662Z,100719.22
2023-05-22T16:16:45.405Z,100723.16
2023-05-22T16:19:11.998Z,100724.53
2023-05-22T16:21:38.743Z,100715.56
2023-05-22T16:24:06.848Z,100719.00
2023-05-22T16:26:33.504Z,100726.16
2023-05-22T16:29:00.005Z,100732.50
2023-05-22T16:31:26.504Z,100743.53
2023-05-22T16:33:53.211Z,100751.44
2023-05-22T16:36:19.893Z,100743.72
2023-05-22T16:38:46.753Z,100738.09
2023-05-22T16:41:13.367Z,100732.53
2023-05-22T16:43:39.836Z,100723.78
2023-05-22T16:46:06.294Z,100733.66
2023-05-22T16:48:32.753Z,100719.16
2023-05-22T16:50:59.169Z,100722.66
2023-05-22T16:53:25.588Z,100726.38
2023-05-22T16:55:52.269Z,100729.81
2023-05-22T16:58:19.038Z,100725.97
2023-05-22T17:00:45.895Z,100725.44
2023-05-22T17:03:13.000Z,100719.00
2023-05-22T17:05:40.259Z,100715.81
2023-05-22T17:08:06.997Z,100715.03
2023-05-22T17:10:33.486Z,100711.38
2023-05-22T17:12:59.932Z,100703.75
2023-05-22T17:15:26.516Z,100712.81
2023-05-22T17:17:53.282Z,100704.44
2023-05-22T17:20:23.114Z,100705.94
2023-05-22T17:22:49.987Z,100710.16
2023-05-22T17:25:16.655Z,100717.09
2023-05-22T17:27:43.178Z,100714.34
2023-05-22T17:30:10.197Z,100714.75
2023-05-22T17:32:37.879Z,100710.44
2023-05-22T17:35:06.351Z,100704.59
2023-05-22T17:37:32.872Z,100701.81
2023-05-22T17:39:59.352Z,100709.75
2023-05-22T17:42:25.905Z,100709.91
2023-05-22T17:44:52.461Z,100718.84
2023-05-22T17:47:18.914Z,100731.66
2023-05-22T17:49:45.876Z,100737.22
2023-05-22T17:52:13.319Z,100738.16
2023-05-22T17:54:39.863Z,100740.25
2023-05-22T17:57:06.329Z,100738.47
2023-05-22T17:59:32.836Z,100737.31
2023-05-22T18:01:59.464Z,100739.44
2023-05-22T18:04:26.217Z,100766.97
2023-05-22T18:06:52.754Z,100781.22
2023-05-22T18:09:19.331Z,100772.31
2023-05-22T18:11:46.157Z,100754.19
2023-05-22T18:14:12.672Z,100773.63
2023-05-22T18:16:39.237Z,100755.47
2023-05-22T18:19:05.774Z,100760.00
2023-05-22T18:21:32.355Z,100769.84
2023-05-22T18:23:58.961Z,100773.13
2023-05-22T18:26:26.621Z,100782.22
2023-05-22T18:28:53.361Z,100787.72
2023-05-22T18:31:20.049Z,100789.19
2023-05-22T18:33:46.763Z,100805.09
2023-05-22T18:36:13.812Z,100805.91
2023-05-22T18:38:40.410Z,100812.25
2023-05-22T18:41:07.325Z,100822.16
2023-05-22T18:43:33.776Z,100821.63
2023-05-22T18:46:00.251Z,100819.72
2023-05-22T18:48:28.104Z,100828.97
2023-05-22T18:50:57.425Z,100822.00
2023-05-22T18:53:25.133Z,100847.09
2023-05-22T18:55:52.322Z,100849.03
2023-05-22T18:58:18.777Z,100853.59
2023-05-22T19:00:45.640Z,100843.41
2023-05-22T19:03:12.367Z,100857.97
2023-05-22T19:05:38.921Z,100859.41
2023-05-22T19:08:06.036Z,100864.13
2023-05-22T19:10:33.017Z,100863.28
2023-05-22T19:12:59.532Z,100865.09
2023-05-22T19:15:26.085Z,100873.94
2023-05-22T19:17:52.696Z,100872.16
2023-05-22T19:20:19.256Z,100879.91
2023-05-22T19:22:45.979Z,100880.09
2023-05-22T19:25:12.423Z,100879.09
2023-05-22T19:27:39.478Z,100887.16
2023-05-22T19:30:06.737Z,100894.91
2023-05-22T19:32:33.258Z,100902.50
2023-05-22T19:34:59.782Z,100900.44
2023-05-22T19:37:26.295Z,100906.09
2023-05-22T19:39:54.048Z,100910.13
2023-05-22T19:42:20.590Z,100914.66
2023-05-22T19:44:47.280Z,100914.84
2023-05-22T19:47:13.898Z,100916.63
2023-05-22T19:49:40.500Z,100923.41
2023-05-22T19:52:06.975Z,100919.50
2023-05-22T19:54:35.540Z,100920.78
2023-05-22T19:57:03.010Z,100924.63
2023-05-22T19:59:29.463Z,100926.28
2023-05-22T20:01:56.129Z,100929.50
2023-05-22T20:04:23.230Z,100929.03
2023-05-22T20:06:51.043Z,100932.41
2023-05-22T20:09:17.566Z,100924.16
2023-05-22T20:11:44.221Z,100919.81
2023-05-22T20:14:12.641Z,100914.66
2023-05-22T20:16:39.197Z,100920.78
2023-05-22T20:19:05.729Z,100918.81
2023-05-22T20:21:32.211Z,100923.66
2023-05-22T20:23:59.096Z,100914.63
2023-05-22T20:26:26.001Z,100917.78
2023-05-22T20:28:52.525Z,100921.00
2023-05-22T20:31:19.016Z,100916.63
2023-05-22T20:33:45.688Z,100911.00
2023-05-22T20:36:14.844Z,100922.63
2023-05-22T20:38:43.000Z,100909.47
2023-05-22T20:41:12.748Z,100914.66
2023-05-22T20:43:42.603Z,100917.56
2023-05-22T20:46:10.117Z,100917.38
2023-05-22T20:48:36.587Z,100918.97
2023-05-22T20:51:03.170Z,100930.59
2023-05-22T20:53:29.648Z,100919.59
2023-05-22T20:55:57.474Z,100922.34
2023-05-22T20:58:24.029Z,100923.19
2023-05-22T21:00:50.725Z,100917.50
2023-05-22T21:03:17.658Z,100915.38
2023-05-22T21:05:44.352Z,100918.66
2023-05-22T21:08:10.893Z,100918.97
2023-05-22T21:10:37.365Z,100906.84
2023-05-22T21:13:03.897Z,100898.47
2023-05-22T21:15:30.511Z,100905.06
2023-05-22T21:17:56.982Z,100895.56
2023-05-22T21:20:23.620Z,100892.69
2023-05-22T21:22:50.280Z,100897.03
2023-05-22T21:25:16.824Z,100890.75
2023-05-22T21:27:43.264Z,100889.78
2023-05-22T21:30:12.253Z,100897.69
2023-05-22T21:32:38.716Z,100896.38
2023-05-22T21:35:05.993Z,100888.75
2023-05-22T21:37:32.510Z,100889.84
2023-05-22T21:39:58.931Z,100888.06
2023-05-22T21:42:26.204Z,100886.28
2023-05-22T21:44:52.963Z,100884.66
2023-05-22T21:47:19.394Z,100891.28
2023-05-22T21:49:46.084Z,100888.38
2023-05-22T21:52:12.745Z,100896.09
2023-05-22T21:54:39.551Z,100880.28
2023-05-22T21:57:06.428Z,100885.19
2023-05-22T21:59:33.040Z,100883.06
2023-05-22T22:02:24.671Z,100892.91
2023-05-22T22:04:51.697Z,100890.13
2023-05-22T22:07:18.136Z,100888.69
2023-05-22T22:09:44.673Z,100894.47
2023-05-22T22:12:11.571Z,100895.97
2023-05-22T22:14:38.058Z,100893.09
2023-05-22T22:17:05.749Z,100884.56
2023-05-22T22:19:34.244Z,100891.38
2023-05-22T22:22:01.374Z,100893.00
2023-05-22T22:24:28.201Z,100896.34
2023-05-22T22:26:54.890Z,100895.31
2023-05-22T22:29:21.619Z,100892.47
2023-05-22T22:31:48.312Z,100888.75
2023-05-22T22:34:14.794Z,100891.88
2023-05-22T22:36:41.248Z,100885.44
2023-05-22T22:39:07.695Z,100878.53
2023-05-22T22:41:34.158Z,100887.22
2023-05-22T22:44:00.601Z,100875.16
2023-05-22T22:46:27.257Z,100869.31
2023-05-22T22:48:55.339Z,100869.75
2023-05-22T22:51:21.993Z,100872.16
2023-05-22T22:53:48.690Z,100865.06
2023-05-22T22:56:15.170Z,100866.25
2023-05-22T22:58:41.633Z,100866.44
2023-05-22T23:01:08.249Z,100874.78
2023-05-22T23:03:34.773Z,100882.22
2023-05-22T23:06:01.945Z,100880.88
2023-05-22T23:08:28.353Z,100881.06
2023-05-22T23:10:54.790Z,100877.03
2023-05-22T23:13:21.516Z,100881.53
2023-05-22T23:15:48.365Z,100879.38
2023-05-22T23:18:15.160Z,100882.69
2023-05-22T23:20:41.664Z,100877.94
2023-05-22T23:23:08.325Z,100882.41
2023-05-22T23:25:34.830Z,100870.75
2023-05-22T23:28:01.282Z,100867.47
2023-05-22T23:30:27.923Z,100863.63
2023-05-22T23:32:54.443Z,100867.16
2023-05-22T23:35:21.447Z,100865.06
2023-05-22T23:37:47.897Z,100867.81
2023-05-22T23:40:14.403Z,100867.88
2023-05-22T23:42:41.223Z,100871.97
2023-05-22T23:45:08.087Z,100865.47
2023-05-22T23:47:35.251Z,100861.00
2023-05-22T23:50:01.803Z,100852.66
2023-05-22T23:52:28.313Z,100846.06
2023-05-22T23:54:54.747Z,100849.31
2023-05-22T23:57:21.677Z,100848.16
2023-05-22T23:59:48.433Z,100848.38
